Time;durP1;ratioP1;P1;durP2;ratioP2;P2;SDS_P1;SDS_P2;PMS_P1;PMS_P2;Temp;Humidity;BMP_temperature;BMP_pressure;BME280_temperature;BME280_humidity;BME280_pressure;Samples;Min_cycle;Max_cycle;Signal;HPM_P1;HPM_P2
2023/10/22 00:01:18;;;;;;;6.97;1.23;;;10.40;99.90;;;;;;5059925;28;20036;-64
2023/10/22 00:03:44;;;;;;;3.60;1.00;;;10.40;99.90;;;;;;5061952;28;20029;-64
2023/10/22 00:06:09;;;;;;;;;;;10.40;99.90;;;;;;5069131;28;20040;-63
2023/10/22 00:08:35;;;;;;;8.98;1.17;;;10.40;99.90;;;;;;5082493;28;20003;-64
2023/10/22 00:11:00;;;;;;;;;;;10.40;99.90;;;;;;5080121;28;20043;-64
2023/10/22 00:13:26;;;;;;;7.43;1.23;;;10.40;99.90;;;;;;5078306;28;19920;-64
2023/10/22 00:15:52;;;;;;;;;;;10.40;99.90;;;;;;5082258;28;20462;-64
2023/10/22 00:18:17;;;;;;;7.40;1.48;;;10.40;99.90;;;;;;5069288;28;19963;-64
2023/10/22 00:20:43;;;;;;;6.13;1.25;;;10.40;99.90;;;;;;5068098;28;20044;-64
2023/10/22 00:23:08;;;;;;;;;;;10.30;99.90;;;;;;5069055;28;20047;-64
2023/10/22 00:25:35;;;;;;;6.05;1.45;;;10.30;99.90;;;;;;5063703;28;19925;-64
2023/10/22 00:28:02;;;;;;;5.15;0.90;;;10.30;99.90;;;;;;5065254;28;20180;-63
2023/10/22 00:30:28;;;;;;;4.70;1.02;;;10.30;99.90;;;;;;5063677;28;20127;-62
2023/10/22 00:32:53;;;;;;;7.10;1.13;;;10.30;99.90;;;;;;5066464;28;20052;-64
2023/10/22 00:35:19;;;;;;;;;;;10.30;99.90;;;;;;5068751;28;20033;-66
2023/10/22 00:37:44;;;;;;;6.40;1.23;;;10.30;99.90;;;;;;5069182;28;19942;-64
2023/10/22 00:40:10;;;;;;;;;;;10.30;99.90;;;;;;5060353;28;20033;-66
2023/10/22 00:42:36;;;;;;;4.75;0.65;;;10.30;99.90;;;;;;5064499;28;20054;-63
2023/10/22 00:45:02;;;;;;;;;;;10.30;99.90;;;;;;5067712;28;20036;-64
2023/10/22 00:47:29;;;;;;;5.72;1.08;;;10.20;99.90;;;;;;5068810;28;19946;-63
2023/10/22 00:49:54;;;;;;;8.35;0.90;;;10.20;99.90;;;;;;5066808;28;20194;-63
2023/10/22 00:52:20;;;;;;;;;;;10.30;99.90;;;;;;5066731;28;20135;-63
2023/10/22 00:54:46;;;;;;;6.05;1.08;;;10.30;99.90;;;;;;5063923;28;19927;-63
2023/10/22 00:57:12;;;;;;;;;;;10.20;99.90;;;;;;5065479;28;20051;-64
2023/10/22 00:59:38;;;;;;;4.00;1.08;;;10.20;99.90;;;;;;5063154;28;19969;-64
2023/10/22 01:02:03;;;;;;;4.30;1.00;;;10.20;99.90;;;;;;5059852;28;20047;-64
2023/10/22 01:04:30;;;;;;;;;;;10.20;99.90;;;;;;5069093;28;20387;-64
2023/10/22 01:06:56;;;;;;;8.10;1.00;;;10.20;99.90;;;;;;5067175;28;20457;-63
2023/10/22 01:09:22;;;;;;;2.90;0.93;;;10.10;99.90;;;;;;5066466;28;20512;-65
2023/10/22 01:12:00;;;;;;;;;;;10.10;99.90;;;;;;5067987;28;20090;-65
2023/10/22 01:14:26;;;;;;;6.25;1.00;;;10.10;99.90;;;;;;5066017;28;19924;-64
2023/10/22 01:16:52;;;;;;;;;;;10.10;99.90;;;;;;5066996;28;20037;-64
2023/10/22 01:19:17;;;;;;;4.25;0.98;;;10.10;99.90;;;;;;5067537;28;19920;-64
2023/10/22 01:21:43;;;;;;;15.13;1.35;;;10.10;99.90;;;;;;5066884;28;20119;-63
2023/10/22 01:24:09;;;;;;;;;;;10.10;99.90;;;;;;5068368;28;20066;-63
2023/10/22 01:26:45;;;;;;;7.00;1.42;;;10.10;99.90;;;;;;5067048;28;19936;-64
2023/10/22 01:29:10;;;;;;;8.65;1.17;;;10.10;99.90;;;;;;5066269;28;20048;-64
2023/10/22 01:31:37;;;;;;;5.20;1.30;;;10.10;99.90;;;;;;5065583;28;20503;-65
2023/10/22 01:34:03;;;;;;;5.72;1.00;;;10.10;99.90;;;;;;5067647;28;20105;-64
2023/10/22 01:36:28;;;;;;;4.95;0.95;;;10.10;99.90;;;;;;5061549;28;20101;-63
2023/10/22 01:38:54;;;;;;;;;;;10.10;99.90;;;;;;5068058;28;20170;-63
2023/10/22 01:41:20;;;;;;;5.97;0.90;;;10.10;99.90;;;;;;5067068;28;19998;-63
2023/10/22 01:43:46;;;;;;;5.38;1.10;;;10.10;99.90;;;;;;5067588;28;20178;-62
2023/10/22 01:46:11;;;;;;;;;;;10.10;99.90;;;;;;5064453;28;20083;-64
2023/10/22 01:48:38;;;;;;;6.47;1.52;;;10.00;99.90;;;;;;5066751;28;19916;-64
2023/10/22 01:51:04;;;;;;;7.25;1.45;;;10.00;99.90;;;;;;5066103;28;20540;-64
2023/10/22 01:53:29;;;;;;;;;;;10.10;99.90;;;;;;5067623;28;20111;-63
2023/10/22 01:55:55;;;;;;;6.38;1.02;;;10.10;99.90;;;;;;5059811;28;19934;-63
2023/10/22 01:58:21;;;;;;;;;;;10.00;99.90;;;;;;5061591;28;20060;-63
2023/10/22 02:00:47;;;;;;;7.60;1.50;;;10.00;99.90;;;;;;5056291;28;20451;-65
2023/10/22 02:03:13;;;;;;;;;;;10.00;99.90;;;;;;5046619;28;20041;-65
2023/10/22 02:05:39;;;;;;;3.67;1.05;;;10.00;99.90;;;;;;5044894;28;19924;-63
2023/10/22 02:08:06;;;;;;;6.35;1.70;;;10.00;99.90;;;;;;5045611;28;20045;-63
2023/10/22 02:10:32;;;;;;;6.60;1.08;;;10.00;99.90;;;;;;5043496;28;20049;-64
2023/10/22 02:12:57;;;;;;;4.57;0.80;;;10.00;99.90;;;;;;5043343;28;20072;-64
2023/10/22 02:15:25;;;;;;;;;;;10.00;99.90;;;;;;5047027;28;20045;-61
2023/10/22 02:17:51;;;;;;;8.10;1.08;;;10.00;99.90;;;;;;5046958;28;19920;-62
2023/10/22 02:20:16;;;;;;;11.70;2.17;;;10.00;99.90;;;;;;5045344;28;20056;-63
2023/10/22 02:22:42;;;;;;;;;;;10.00;99.90;;;;;;5044253;28;20056;-65
2023/10/22 02:25:08;;;;;;;5.70;1.17;;;10.00;99.90;;;;;;5046239;28;20019;-64
2023/10/22 02:27:35;;;;;;;5.13;1.48;;;10.00;99.90;;;;;;5047021;28;20628;-63
2023/10/22 02:30:00;;;;;;;12.90;1.75;;;10.00;99.90;;;;;;5045087;28;20037;-65
2023/10/22 02:32:26;;;;;;;;;;;10.00;99.90;;;;;;5059335;28;20095;-65
2023/10/22 02:34:52;;;;;;;7.57;1.02;;;10.00;99.90;;;;;;5066409;28;20016;-65
2023/10/22 02:37:19;;;;;;;2.65;0.77;;;9.90;99.90;;;;;;5059281;28;20044;-63
2023/10/22 02:39:45;;;;;;;7.95;1.23;;;10.00;99.90;;;;;;5062871;28;20106;-63
2023/10/22 02:42:10;;;;;;;;;;;9.90;99.90;;;;;;5063999;28;20702;-64
2023/10/22 02:44:36;;;;;;;6.05;0.95;;;9.90;99.90;;;;;;5066282;28;19924;-63
2023/10/22 02:47:02;;;;;;;;;;;9.90;99.90;;;;;;5063169;28;20063;-64
2023/10/22 02:49:30;;;;;;;5.50;0.82;;;9.90;99.90;;;;;;5066497;28;19920;-64
2023/10/22 02:51:55;;;;;;;3.35;1.00;;;9.90;99.90;;;;;;5065803;28;20114;-63
2023/10/22 02:54:21;;;;;;;;;;;9.90;99.90;;;;;;5062518;28;20622;-64
2023/10/22 02:56:47;;;;;;;4.05;1.17;;;9.90;99.90;;;;;;5065737;28;19948;-64
2023/10/22 02:59:13;;;;;;;;;;;9.90;99.90;;;;;;5066791;28;20070;-65
2023/10/22 03:01:38;;;;;;;3.40;1.00;;;9.90;99.90;;;;;;5062067;28;19921;-64
2023/10/22 03:04:04;;;;;;;4.57;0.75;;;9.90;99.90;;;;;;5065683;28;20029;-63
2023/10/22 03:06:29;;;;;;;;;;;9.90;99.90;;;;;;5065986;28;20589;-64
2023/10/22 03:08:55;;;;;;;6.93;0.75;;;9.90;99.90;;;;;;5066222;28;19932;-65
2023/10/22 03:11:21;;;;;;;3.55;0.80;;;9.90;99.90;;;;;;5065186;28;20150;-64
2023/10/22 03:13:49;;;;;;;5.20;1.10;;;9.90;99.90;;;;;;5064521;28;20102;-63
2023/10/22 03:16:14;;;;;;;4.07;1.08;;;9.90;99.90;;;;;;5062933;28;20052;-63
2023/10/22 03:18:44;;;;;;;;;;;9.90;99.90;;;;;;5065963;28;20029;-64
2023/10/22 03:21:24;;;;;;;4.78;0.88;;;9.90;99.90;;;;;;5064759;28;20015;-64
2023/10/22 03:23:49;;;;;;;4.28;1.00;;;9.90;99.90;;;;;;5064867;28;20055;-64
2023/10/22 03:26:16;;;;;;;;;;;10.00;99.90;;;;;;5065420;28;20078;-64
2023/10/22 03:28:46;;;;;;;5.25;1.17;;;10.00;99.90;;;;;;5063947;28;19920;-64
2023/10/22 03:31:12;;;;;;;3.97;0.90;;;10.00;99.90;;;;;;5063055;28;20049;-63
2023/10/22 03:33:38;;;;;;;3.28;0.82;;;10.00;99.90;;;;;;5064560;28;20044;-63
2023/10/22 03:36:04;;;;;;;;;;;10.00;99.90;;;;;;5064497;28;20491;-62
2023/10/22 03:38:30;;;;;;;5.75;0.88;;;10.00;99.90;;;;;;5066020;28;19975;-62
2023/10/22 03:41:05;;;;;;;7.90;1.23;;;10.00;99.90;;;;;;5064320;28;20136;-63
2023/10/22 03:43:32;;;;;;;3.92;1.55;;;10.10;99.90;;;;;;5063536;28;20032;-64
2023/10/22 03:45:59;;;;;;;7.75;1.13;;;10.00;99.90;;;;;;5063771;28;20063;-65
2023/10/22 03:48:25;;;;;;;7.93;1.17;;;10.10;99.90;;;;;;5064148;28;20036;-64
2023/10/22 03:50:52;;;;;;;5.72;1.30;;;10.10;99.90;;;;;;5061973;28;20044;-65
2023/10/22 03:53:18;;;;;;;8.02;1.50;;;10.10;99.90;;;;;;5065562;28;20040;-63
2023/10/22 03:55:44;;;;;;;5.93;1.02;;;10.10;99.90;;;;;;5067919;28;20044;-63
2023/10/22 03:58:09;;;;;;;;;;;10.10;99.90;;;;;;5069578;28;20185;-63
2023/10/22 04:00:35;;;;;;;2.65;0.82;;;10.10;99.90;;;;;;5067237;28;19927;-62
2023/10/22 04:03:01;;;;;;;;;;;10.10;99.90;;;;;;5068368;28;20662;-65
2023/10/22 04:05:27;;;;;;;8.10;1.13;;;10.10;99.90;;;;;;5067749;28;19920;-64
2023/10/22 04:07:53;;;;;;;6.80;1.73;;;10.10;99.90;;;;;;5069621;28;20048;-64
2023/10/22 04:10:19;;;;;;;6.70;0.90;;;10.10;99.90;;;;;;5065138;28;20032;-64
2023/10/22 04:12:44;;;;;;;;;;;10.10;99.90;;;;;;5067783;28;20052;-65
2023/10/22 04:15:10;;;;;;;3.30;0.95;;;10.10;99.90;;;;;;5066214;28;20415;-64
2023/10/22 04:17:36;;;;;;;7.32;0.80;;;10.00;99.90;;;;;;5064027;28;20040;-64
2023/10/22 04:20:01;;;;;;;3.30;0.73;;;10.10;99.90;;;;;;5067290;28;20484;-65
2023/10/22 04:22:27;;;;;;;;;;;10.00;99.90;;;;;;5068427;28;20534;-64
2023/10/22 04:24:53;;;;;;;3.58;0.60;;;10.00;99.90;;;;;;5065915;28;19932;-63
2023/10/22 04:27:19;;;;;;;6.03;1.20;;;9.90;99.90;;;;;;5068425;28;20411;-63
2023/10/22 04:29:46;;;;;;;;;;;9.90;99.90;;;;;;5068449;28;20036;-63
2023/10/22 04:32:12;;;;;;;3.08;0.68;;;9.90;99.90;;;;;;5066441;28;19920;-63
2023/10/22 04:34:39;;;;;;;6.22;1.42;;;9.90;99.90;;;;;;5066080;28;20074;-63
2023/10/22 04:37:06;;;;;;;2.13;0.88;;;9.90;99.90;;;;;;5068996;28;20053;-63
2023/10/22 04:39:32;;;;;;;3.60;0.90;;;9.90;99.90;;;;;;5067588;28;20071;-63
2023/10/22 04:41:57;;;;;;;;;;;9.90;99.90;;;;;;5068346;28;20155;-63
2023/10/22 04:44:23;;;;;;;5.32;0.88;;;9.80;99.90;;;;;;5067839;28;20371;-63
2023/10/22 04:46:49;;;;;;;;;;;9.80;99.90;;;;;;5065110;28;20098;-64
2023/10/22 04:49:15;;;;;;;4.10;0.70;;;9.90;99.90;;;;;;5067736;28;20042;-63
2023/10/22 04:51:40;;;;;;;4.10;0.70;;;9.90;99.90;;;;;;5067592;28;20874;-63
2023/10/22 04:54:06;;;;;;;5.75;0.90;;;9.90;99.90;;;;;;5066471;28;20043;-64
2023/10/22 04:56:32;;;;;;;;;;;9.90;99.90;;;;;;5067364;28;20527;-63
2023/10/22 04:58:58;;;;;;;6.47;0.95;;;9.90;99.90;;;;;;5068226;28;19920;-63
2023/10/22 05:01:23;;;;;;;;;;;9.90;99.90;;;;;;5063758;28;20567;-64
2023/10/22 05:03:49;;;;;;;7.82;1.02;;;9.90;99.90;;;;;;5062350;28;20036;-63
2023/10/22 05:06:14;;;;;;;;;;;9.90;99.90;;;;;;5067853;28;20452;-64
2023/10/22 05:08:40;;;;;;;5.80;0.90;;;9.90;99.90;;;;;;5067412;28;20027;-63
2023/10/22 05:11:11;;;;;;;;;;;9.90;99.90;;;;;;5067440;28;20060;-63
2023/10/22 05:13:37;;;;;;;4.40;0.80;;;9.90;99.90;;;;;;5062604;28;19970;-63
2023/10/22 05:16:02;;;;;;;;;;;9.90;99.90;;;;;;5064776;28;20048;-63
2023/10/22 05:18:28;;;;;;;2.28;0.70;;;9.90;99.90;;;;;;5064498;28;19946;-64
2023/10/22 05:21:01;;;;;;;3.80;0.68;;;9.80;99.90;;;;;;5066157;28;20029;-63
2023/10/22 05:23:27;;;;;;;2.53;0.50;;;9.70;99.90;;;;;;5067604;28;20040;-64
2023/10/22 05:26:02;;;;;;;;;;;9.60;99.90;;;;;;5060554;28;20056;-64
2023/10/22 05:28:27;;;;;;;3.60;0.88;;;9.60;99.90;;;;;;5067190;28;20403;-64
2023/10/22 05:30:53;;;;;;;;;;;9.50;99.90;;;;;;5064207;28;20033;-63
2023/10/22 05:33:18;;;;;;;1.70;0.50;;;9.50;99.90;;;;;;5067177;28;19920;-63
2023/10/22 05:35:44;;;;;;;3.72;0.40;;;9.40;99.90;;;;;;5066887;28;20410;-64
2023/10/22 05:38:09;;;;;;;;;;;9.40;99.90;;;;;;5063518;28;20729;-63
2023/10/22 05:40:36;;;;;;;3.28;0.60;;;9.40;99.90;;;;;;5063809;28;19921;-64
2023/10/22 05:43:03;;;;;;;2.17;0.50;;;9.50;99.90;;;;;;5060310;28;20041;-63
2023/10/22 05:45:28;;;;;;;;;;;9.40;99.90;;;;;;5066107;28;20068;-64
2023/10/22 05:47:54;;;;;;;4.88;0.63;;;9.50;99.90;;;;;;5066181;28;19951;-64
2023/10/22 05:50:19;;;;;;;;;;;9.50;99.90;;;;;;5067126;28;20036;-67
2023/10/22 05:52:45;;;;;;;3.60;0.40;;;9.50;99.90;;;;;;5064867;28;19916;-63
2023/10/22 05:55:13;;;;;;;4.25;0.68;;;9.50;99.90;;;;;;5066519;28;20113;-63
2023/10/22 05:57:39;;;;;;;1.45;0.47;;;9.60;99.90;;;;;;5066679;28;20046;-63
2023/10/22 06:00:07;;;;;;;2.38;0.80;;;9.60;99.90;;;;;;5064036;28;20059;-63
2023/10/22 06:02:33;;;;;;;4.28;0.55;;;9.60;99.90;;;;;;5061536;28;20063;-63
2023/10/22 06:04:59;;;;;;;;;;;9.60;99.90;;;;;;5066555;28;20520;-65
2023/10/22 06:07:25;;;;;;;0.98;0.40;;;9.60;99.90;;;;;;5065925;28;20700;-64
2023/10/22 06:09:50;;;;;;;4.45;0.82;;;9.60;99.90;;;;;;5065565;28;20044;-63
2023/10/22 06:12:16;;;;;;;;;;;9.60;99.90;;;;;;5066572;28;20501;-65
2023/10/22 06:14:41;;;;;;;2.20;0.50;;;9.60;99.90;;;;;;5063112;28;21184;-63
2023/10/22 06:17:07;;;;;;;;;;;9.60;99.90;;;;;;5066890;28;20119;-63
2023/10/22 06:19:33;;;;;;;3.15;0.30;;;9.60;99.90;;;;;;5063379;28;19982;-63
2023/10/22 06:21:58;;;;;;;;;;;9.60;99.90;;;;;;5064995;28;20032;-62
2023/10/22 06:24:24;;;;;;;4.43;0.60;;;9.60;99.90;;;;;;5066057;28;20038;-62
2023/10/22 06:26:50;;;;;;;2.08;0.50;;;9.70;99.90;;;;;;5066327;28;20094;-63
2023/10/22 06:29:15;;;;;;;1.13;0.22;;;9.70;99.90;;;;;;5066439;28;20497;-62
2023/10/22 06:31:42;;;;;;;;;;;9.70;99.90;;;;;;5064430;28;20041;-63
2023/10/22 06:34:07;;;;;;;1.02;0.30;;;9.70;99.90;;;;;;5066112;28;19921;-63
2023/10/22 06:36:33;;;;;;;;;;;9.70;99.90;;;;;;5061663;28;20051;-64
2023/10/22 06:38:58;;;;;;;3.90;0.50;;;9.70;99.90;;;;;;5059527;28;20673;-63
2023/10/22 06:41:25;;;;;;;3.40;0.50;;;9.80;99.90;;;;;;5013698;28;20041;-62
2023/10/22 06:43:51;;;;;;;1.63;0.60;;;9.80;99.90;;;;;;5055801;28;20416;-62
2023/10/22 06:46:18;;;;;;;2.88;0.63;;;9.80;99.90;;;;;;5051853;28;20048;-62
2023/10/22 06:48:43;;;;;;;2.78;0.30;;;9.80;99.90;;;;;;5065499;28;20040;-63
2023/10/22 06:51:10;;;;;;;;;;;9.80;99.90;;;;;;5065013;28;20123;-61
2023/10/22 06:53:37;;;;;;;0.98;0.30;;;9.80;99.90;;;;;;5063761;28;20012;-62
2023/10/22 06:56:04;;;;;;;1.77;0.35;;;9.80;99.90;;;;;;5065420;28;20052;-62
2023/10/22 06:58:30;;;;;;;1.73;0.45;;;9.80;99.90;;;;;;5065130;28;20044;-63
2023/10/22 07:01:10;;;;;;;2.63;0.35;;;9.90;99.90;;;;;;5061640;28;20044;-63
2023/10/22 07:03:37;;;;;;;8.05;0.55;;;9.90;99.90;;;;;;5065660;28;20067;-62
2023/10/22 07:06:03;;;;;;;2.03;0.50;;;9.90;99.90;;;;;;5063831;28;20115;-62
2023/10/22 07:08:29;;;;;;;;;;;9.90;99.90;;;;;;5064463;28;20140;-63
2023/10/22 07:10:55;;;;;;;2.13;0.50;;;9.90;99.90;;;;;;5065050;28;19916;-62
2023/10/22 07:13:22;;;;;;;2.22;0.52;;;10.00;99.90;;;;;;5061340;28;20036;-61
2023/10/22 07:15:48;;;;;;;1.02;0.30;;;10.00;99.90;;;;;;5064579;28;20597;-62
2023/10/22 07:18:13;;;;;;;;;;;10.00;99.90;;;;;;5065608;28;20068;-63
2023/10/22 07:20:39;;;;;;;2.65;0.40;;;10.00;99.90;;;;;;5062850;28;19966;-62
2023/10/22 07:23:06;;;;;;;1.95;0.40;;;10.10;99.90;;;;;;5065683;28;20579;-63
2023/10/22 07:25:31;;;;;;;1.45;0.30;;;10.00;99.90;;;;;;5065170;28;20407;-62
2023/10/22 07:27:57;;;;;;;;;;;10.00;99.90;;;;;;5067439;28;20037;-63
2023/10/22 07:30:23;;;;;;;2.63;0.35;;;10.00;99.90;;;;;;5057666;28;19920;-62
2023/10/22 07:32:54;;;;;;;1.15;0.22;;;10.00;99.90;;;;;;5059568;28;20117;-63
2023/10/22 07:35:20;;;;;;;1.33;0.43;;;10.00;99.90;;;;;;5064133;28;20029;-63
2023/10/22 07:37:45;;;;;;;;;;;10.00;99.90;;;;;;5047743;28;20051;-62
2023/10/22 07:40:13;;;;;;;1.55;0.30;;;10.00;99.90;;;;;;5068042;28;19977;-63
2023/10/22 07:42:42;;;;;;;3.63;0.50;;;10.00;99.90;;;;;;5067504;28;20863;-61
2023/10/22 07:45:11;;;;;;;1.30;0.30;;;10.10;99.90;;;;;;5067413;28;20032;-62
2023/10/22 07:47:38;;;;;;;2.75;0.50;;;10.10;99.90;;;;;;5069607;28;20048;-63
2023/10/22 07:50:05;;;;;;;2.42;0.40;;;10.10;99.90;;;;;;5068102;28;20127;-63
2023/10/22 07:52:31;;;;;;;1.30;0.40;;;10.10;99.90;;;;;;5066302;28;20051;-61
2023/10/22 07:54:57;;;;;;;2.17;0.32;;;10.10;99.90;;;;;;5068823;28;20048;-62
2023/10/22 07:57:25;;;;;;;;;;;10.20;99.90;;;;;;5069760;28;20191;-62
2023/10/22 07:59:50;;;;;;;1.80;0.22;;;10.20;99.90;;;;;;5067688;28;19952;-63
2023/10/22 08:02:16;;;;;;;;;;;10.20;99.90;;;;;;5067897;28;20071;-63
2023/10/22 08:04:41;;;;;;;0.95;0.25;;;10.30;99.90;;;;;;5058845;28;19963;-63
2023/10/22 08:07:07;;;;;;;1.45;0.30;;;10.40;99.90;;;;;;5068972;28;20429;-63
2023/10/22 08:09:33;;;;;;;;;;;10.30;99.90;;;;;;5068814;28;20055;-63
2023/10/22 08:11:58;;;;;;;1.15;0.20;;;10.20;99.90;;;;;;5066432;28;20455;-63
2023/10/22 08:14:24;;;;;;;;;;;10.20;99.90;;;;;;5069349;28;20044;-62
2023/10/22 08:16:50;;;;;;;2.65;0.25;;;10.30;99.90;;;;;;5065911;28;19944;-62
2023/10/22 08:19:16;;;;;;;;;;;10.30;99.90;;;;;;5067349;28;20076;-62
2023/10/22 08:21:41;;;;;;;1.23;0.30;;;10.30;99.90;;;;;;5067426;28;19920;-62
2023/10/22 08:24:07;;;;;;;;;;;10.30;99.90;;;;;;5049605;28;20072;-62
2023/10/22 08:26:33;;;;;;;2.05;0.30;;;10.30;99.90;;;;;;5068510;28;19982;-63
2023/10/22 08:28:59;;;;;;;;;;;10.30;99.90;;;;;;5068095;28;20066;-63
2023/10/22 08:31:24;;;;;;;1.50;0.20;;;10.30;99.90;;;;;;5065921;28;19916;-63
2023/10/22 08:33:50;;;;;;;;;;;10.30;99.90;;;;;;5069728;28;20044;-63
2023/10/22 08:36:16;;;;;;;1.92;0.10;;;10.20;99.90;;;;;;5068673;28;19921;-62
2023/10/22 08:38:41;;;;;;;1.05;0.30;;;10.20;99.90;;;;;;5067586;28;20052;-62
2023/10/22 08:41:20;;;;;;;0.50;0.20;;;10.20;99.90;;;;;;5065429;28;20178;-63
2023/10/22 08:43:47;;;;;;;0.47;0.20;;;10.20;99.90;;;;;;5060004;28;20458;-62
2023/10/22 08:46:13;;;;;;;0.20;0.20;;;10.20;99.90;;;;;;5058773;28;20107;-61
2023/10/22 08:48:39;;;;;;;;;;;10.20;99.90;;;;;;5062739;28;20860;-62
2023/10/22 08:51:06;;;;;;;0.70;0.20;;;10.20;99.90;;;;;;5058106;28;19967;-64
2023/10/22 08:53:32;;;;;;;2.85;0.30;;;10.30;99.90;;;;;;5061714;28;20047;-63
2023/10/22 08:56:00;;;;;;;;;;;10.30;99.90;;;;;;5066429;28;20064;-63
2023/10/22 08:58:26;;;;;;;0.50;0.20;;;10.40;99.90;;;;;;5063336;28;20439;-63
2023/10/22 09:00:51;;;;;;;;;;;10.40;99.90;;;;;;5063666;28;20068;-62
2023/10/22 09:03:19;;;;;;;1.20;0.52;;;10.50;99.90;;;;;;5066721;28;20003;-62
2023/10/22 09:05:46;;;;;;;1.42;0.32;;;10.50;99.90;;;;;;5061953;28;20036;-62
2023/10/22 09:08:13;;;;;;;0.40;0.30;;;10.50;99.90;;;;;;5065849;28;20050;-62
2023/10/22 09:10:38;;;;;;;0.80;0.40;;;10.60;99.90;;;;;;5063926;28;20375;-63
2023/10/22 09:13:07;;;;;;;;;;;10.60;99.90;;;;;;5068357;28;20535;-63
2023/10/22 09:15:42;;;;;;;0.82;0.30;;;10.60;99.90;;;;;;5064302;28;20434;-62
2023/10/22 09:18:08;;;;;;;2.22;0.55;;;10.60;99.90;;;;;;5067061;28;20045;-62
2023/10/22 09:20:34;;;;;;;;;;;10.60;99.90;;;;;;5065813;28;20046;-63
2023/10/22 09:23:15;;;;;;;0.68;0.30;;;10.60;99.90;;;;;;5067768;28;20002;-63
2023/10/22 09:25:42;;;;;;;2.70;0.50;;;10.60;99.90;;;;;;5061296;28;20037;-63
2023/10/22 09:28:20;;;;;;;3.08;0.40;;;10.60;99.90;;;;;;5064367;28;20086;-61
2023/10/22 09:30:47;;;;;;;1.95;0.40;;;10.60;99.90;;;;;;5058335;28;20060;-62
2023/10/22 09:33:17;;;;;;;2.17;0.50;;;10.60;99.90;;;;;;5068107;28;20040;-63
2023/10/22 09:35:58;;;;;;;1.38;0.50;;;10.60;99.90;;;;;;5066860;28;20045;-63
2023/10/22 09:38:39;;;;;;;0.68;0.30;;;10.60;99.90;;;;;;5060865;28;20067;-63
2023/10/22 09:41:06;;;;;;;1.33;0.50;;;10.70;99.90;;;;;;5065329;28;20041;-62
2023/10/22 09:43:32;;;;;;;1.05;0.30;;;10.70;99.90;;;;;;5065887;28;20035;-62
2023/10/22 09:45:59;;;;;;;0.50;0.20;;;10.70;99.90;;;;;;5065082;28;20049;-61
2023/10/22 09:48:27;;;;;;;1.08;0.40;;;10.80;99.90;;;;;;5066344;28;20129;-63
2023/10/22 09:50:54;;;;;;;1.25;0.38;;;10.80;99.90;;;;;;5060836;28;20051;-61
2023/10/22 09:53:26;;;;;;;0.38;0.30;;;10.90;99.90;;;;;;5059432;28;20048;-60
2023/10/22 09:55:54;;;;;;;0.98;0.40;;;10.90;99.90;;;;;;5063773;28;20512;-64
2023/10/22 09:58:26;;;;;;;1.33;0.30;;;10.90;99.90;;;;;;5064853;28;20113;-63
2023/10/22 10:00:52;;;;;;;2.67;0.30;;;11.00;99.90;;;;;;5060452;28;20052;-63
2023/10/22 10:03:20;;;;;;;4.32;0.50;;;11.10;99.90;;;;;;5064066;28;21219;-63
2023/10/22 10:05:47;;;;;;;1.00;0.25;;;11.40;99.90;;;;;;5066330;28;20504;-64
2023/10/22 10:08:14;;;;;;;2.42;0.30;;;11.50;99.90;;;;;;5060011;28;20113;-64
2023/10/22 10:10:41;;;;;;;1.13;0.50;;;11.70;99.90;;;;;;5066311;28;20049;-64
2023/10/22 10:13:06;;;;;;;0.82;0.30;;;11.90;99.90;;;;;;5062658;28;20501;-64
2023/10/22 10:15:33;;;;;;;;;;;12.00;99.90;;;;;;5062541;28;20040;-62
2023/10/22 10:18:01;;;;;;;0.67;0.60;;;12.00;99.90;;;;;;5065751;28;19931;-64
2023/10/22 10:20:28;;;;;;;0.52;0.35;;;11.90;99.90;;;;;;5063969;28;20037;-64
2023/10/22 10:23:10;;;;;;;0.15;0.15;;;11.90;99.90;;;;;;5067422;28;20040;-65
2023/10/22 10:25:39;;;;;;;0.63;0.30;;;11.90;99.90;;;;;;5057625;28;20068;-64
2023/10/22 10:28:06;;;;;;;1.17;0.30;;;11.80;99.90;;;;;;5057341;28;20049;-62
2023/10/22 10:30:33;;;;;;;0.65;0.20;;;11.70;99.90;;;;;;5055648;28;20119;-64
2023/10/22 10:32:59;;;;;;;0.77;0.30;;;11.60;99.90;;;;;;5063707;28;20697;-63
2023/10/22 10:35:27;;;;;;;;;;;11.50;99.90;;;;;;5063795;28;20112;-63
2023/10/22 10:38:14;;;;;;;0.52;0.25;;;11.40;99.90;;;;;;5062556;28;19916;-64
2023/10/22 10:40:42;;;;;;;0.30;0.20;;;11.40;99.90;;;;;;5061733;28;20064;-65
2023/10/22 10:43:08;;;;;;;0.20;0.10;;;11.50;99.90;;;;;;5061632;28;20041;-65
2023/10/22 10:45:34;;;;;;;;;;;11.50;99.90;;;;;;5063560;28;20045;-64
2023/10/22 10:48:00;;;;;;;1.55;0.50;;;11.50;99.90;;;;;;5064619;28;19920;-64
2023/10/22 10:50:25;;;;;;;;;;;11.50;99.90;;;;;;5066349;28;20040;-64
2023/10/22 10:52:56;;;;;;;0.30;0.20;;;11.60;99.90;;;;;;5065613;28;19959;-64
2023/10/22 10:55:21;;;;;;;0.73;0.22;;;11.60;99.90;;;;;;5064790;28;20776;-64
2023/10/22 10:57:51;;;;;;;;;;;11.60;99.90;;;;;;5066224;28;20040;-64
2023/10/22 11:00:21;;;;;;;1.77;0.65;;;11.60;99.90;;;;;;5050999;28;19920;-65
2023/10/22 11:02:49;;;;;;;0.35;0.30;;;11.70;99.90;;;;;;5057847;28;20047;-65
2023/10/22 11:05:16;;;;;;;0.80;0.20;;;11.70;99.90;;;;;;5065519;28;20109;-64
2023/10/22 11:07:45;;;;;;;1.25;0.25;;;11.60;99.90;;;;;;5063401;28;20045;-64
2023/10/22 11:10:14;;;;;;;0.10;0.10;;;11.70;99.90;;;;;;5057831;28;20029;-64
2023/10/22 11:12:40;;;;;;;0.20;0.13;;;11.60;99.90;;;;;;5060351;28;20040;-64
2023/10/22 11:15:08;;;;;;;0.55;0.20;;;11.70;99.90;;;;;;5064358;28;20391;-64
2023/10/22 11:17:34;;;;;;;0.30;0.20;;;11.70;99.90;;;;;;5056213;28;20056;-64
2023/10/22 11:20:00;;;;;;;0.82;0.30;;;11.80;99.90;;;;;;5061328;28;20040;-65
2023/10/22 11:22:26;;;;;;;;;;;11.90;99.90;;;;;;5062931;28;20048;-65
2023/10/22 11:24:52;;;;;;;0.40;0.20;;;11.90;99.90;;;;;;5065763;28;20006;-65
2023/10/22 11:27:19;;;;;;;1.05;0.20;;;11.80;99.90;;;;;;5065643;28;20397;-64
2023/10/22 11:29:49;;;;;;;3.88;0.73;;;11.80;99.90;;;;;;5063200;28;20068;-64
2023/10/22 11:32:20;;;;;;;0.50;0.20;;;11.90;99.90;;;;;;5061032;28;20037;-64
2023/10/22 11:34:59;;;;;;;0.77;0.30;;;11.90;99.90;;;;;;5064150;28;20073;-64
2023/10/22 11:37:38;;;;;;;0.10;0.10;;;11.80;99.90;;;;;;5060093;28;20074;-64
2023/10/22 11:40:27;;;;;;;0.50;0.05;;;11.90;99.90;;;;;;5062042;28;20116;-64
2023/10/22 11:42:53;;;;;;;0.10;0.10;;;11.80;99.90;;;;;;5060364;28;20033;-64
2023/10/22 11:45:19;;;;;;;;;;;11.70;99.90;;;;;;5058687;28;20051;-64
2023/10/22 11:47:45;;;;;;;0.10;0.10;;;11.60;99.90;;;;;;5066058;28;20442;-64
2023/10/22 11:50:13;;;;;;;;;;;11.50;99.90;;;;;;5065123;28;20120;-64
2023/10/22 11:52:54;;;;;;;0.10;0.10;;;11.50;99.90;;;;;;5060534;28;19943;-64
2023/10/22 11:55:20;;;;;;;0.10;0.10;;;11.40;99.90;;;;;;5063787;28;20037;-62
2023/10/22 11:57:46;;;;;;;;;;;11.30;99.90;;;;;;5065869;28;20047;-64
2023/10/22 12:00:12;;;;;;;0.10;0.10;;;11.30;99.90;;;;;;5064705;28;20021;-64
2023/10/22 12:02:42;;;;;;;1.30;0.13;;;11.20;99.90;;;;;;5044271;28;20287;-64
2023/10/22 12:05:12;;;;;;;0.00;0.00;;;11.20;99.90;;;;;;5041521;28;20040;-64
2023/10/22 12:07:38;;;;;;;0.13;0.10;;;11.10;99.90;;;;;;5043537;28;20045;-63
2023/10/22 12:10:06;;;;;;;;;;;11.00;99.90;;;;;;5039211;28;20396;-64
2023/10/22 12:12:32;;;;;;;0.30;0.10;;;11.10;99.90;;;;;;5041663;28;19917;-63
2023/10/22 12:14:58;;;;;;;0.10;0.10;;;11.10;99.90;;;;;;5046435;28;20049;-63
2023/10/22 12:17:23;;;;;;;;;;;11.10;99.90;;;;;;5042153;28;20045;-64
2023/10/22 12:19:49;;;;;;;0.10;0.10;;;11.10;99.90;;;;;;5043518;28;20386;-65
2023/10/22 12:22:14;;;;;;;;;;;11.10;99.90;;;;;;5044635;28;20669;-64
2023/10/22 12:24:40;;;;;;;0.10;0.10;;;11.10;99.90;;;;;;5040533;28;19921;-64
2023/10/22 12:27:05;;;;;;;;;;;11.10;99.90;;;;;;5046910;28;20111;-64
2023/10/22 12:29:31;;;;;;;0.40;0.15;;;11.20;99.90;;;;;;5040552;28;20008;-64
2023/10/22 12:31:57;;;;;;;;;;;11.10;99.90;;;;;;5077296;28;20044;-64
2023/10/22 12:34:22;;;;;;;0.10;0.10;;;11.10;99.90;;;;;;5082448;28;19924;-64
2023/10/22 12:36:48;;;;;;;;;;;11.10;99.90;;;;;;5082114;28;20083;-65
2023/10/22 12:39:16;;;;;;;0.10;0.10;;;11.10;99.90;;;;;;5081888;28;20379;-65
2023/10/22 12:41:42;;;;;;;0.20;0.17;;;11.20;99.90;;;;;;5077444;28;20078;-65
2023/10/22 12:44:07;;;;;;;;;;;11.20;99.90;;;;;;5085968;28;20426;-64
2023/10/22 12:46:33;;;;;;;0.55;0.22;;;11.20;99.90;;;;;;5067128;22;19964;-64
2023/10/22 12:48:59;;;;;;;;;;;11.20;99.90;;;;;;5048856;28;20055;-64
2023/10/22 12:51:25;;;;;;;0.10;0.10;;;11.20;99.90;;;;;;5054219;28;19924;-63
2023/10/22 12:53:53;;;;;;;0.60;0.10;;;11.20;99.90;;;;;;5062788;28;20044;-63
2023/10/22 12:56:19;;;;;;;;;;;11.20;99.90;;;;;;5024356;28;20448;-63
2023/10/22 12:58:46;;;;;;;0.10;0.10;;;11.30;99.90;;;;;;5064288;28;19967;-62
2023/10/22 13:01:15;;;;;;;0.10;0.10;;;11.20;99.90;;;;;;5060342;28;20074;-64
2023/10/22 13:03:41;;;;;;;0.10;0.10;;;11.20;99.90;;;;;;5060586;28;20068;-64
2023/10/22 13:06:08;;;;;;;;;;;11.20;99.90;;;;;;5055737;28;20045;-64
2023/10/22 13:08:33;;;;;;;0.57;0.22;;;11.30;99.90;;;;;;5058229;28;20303;-64
2023/10/22 13:10:59;;;;;;;;;;;11.30;99.90;;;;;;5057441;28;20048;-64